Avon Lake, Iowa
Current Conditions -  °F | °C
As of 6:54 PM on Tuesday 21 Oct 2014 (Local Time) from KDSM Reporting Station
Clear Clear  
Wind Chill: 16°   Ceiling: Unl
Heat Index: 16°   Visibility: 10mi
Dew Point:   Wind: 10mph
Humidity: 53%   Direction: 110°ESE
Pressure: 30.13"   Gusts: NA
Location:  41.4707°N, 93.4797°W
Report Text: KDSM 212354Z 11009KT 10SM CLR 16/06 A3013 RMK AO2 SLP203 T01560061 10194 20156 53004
Loading
Personal Weather Stations






























Interactive Weather Map New forecast layout! Learn more

10-Day Weather Forecast

Advertisements
Track Severe Weather on mobile